Time;durP1;ratioP1;P1;durP2;ratioP2;P2;SDS_P1;SDS_P2;PMS_P1;PMS_P2;Temp;Humidity;BMP_temperature;BMP_pressure;BME280_temperature;BME280_humidity;BME280_pressure;Samples;Min_cycle;Max_cycle;Signal;HPM_P1;HPM_P2
2022/02/11 00:07:40;;;;;;;2.03;0.73;;;24.00;27.10;24.40;94243.00;;;;10437436;28;45256;-79
2022/02/11 00:12:42;;;;;;;1.00;0.70;;;24.00;27.10;24.40;94231.00;;;;10423620;28;48077;-79
2022/02/11 00:17:43;;;;;;;1.52;0.90;;;24.10;27.10;24.40;94226.00;;;;10427316;28;47342;-79
2022/02/11 00:22:44;;;;;;;1.45;0.85;;;24.00;27.10;24.40;94220.00;;;;10445809;28;45170;-79
2022/02/11 00:33:23;;;;;;;1.17;0.63;;;24.00;27.20;24.30;94192.00;;;;10443488;28;45314;-79
2022/02/11 00:38:45;;;;;;;2.33;0.90;;;23.90;27.10;24.30;94210.00;;;;10444645;28;45242;-79
2022/02/11 01:05:01;;;;;;;2.20;0.80;;;23.80;27.20;24.20;94193.00;;;;10443423;28;45265;-79
2022/02/11 01:10:03;;;;;;;1.20;0.80;;;23.80;27.20;24.20;94214.00;;;;10443222;28;45343;-79
2022/02/11 01:15:05;;;;;;;1.75;0.93;;;23.80;27.20;24.20;94183.00;;;;10443013;28;46352;-80
2022/02/11 01:20:14;;;;;;;1.42;0.88;;;23.80;27.30;24.10;94193.00;;;;10442810;28;47202;-79
2022/02/11 01:51:05;;;;;;;1.45;0.80;;;23.60;27.30;24.00;94195.00;;;;10441375;28;45421;-79
2022/02/11 02:01:31;;;;;;;1.10;0.75;;;23.60;27.30;24.00;94173.00;;;;10440393;28;45451;-80
2022/02/11 02:17:46;;;;;;;2.30;0.80;;;23.50;27.30;23.90;94158.00;;;;10440288;28;45286;-79
2022/02/11 02:59:26;;;;;;;0.75;0.60;;;23.50;27.40;23.80;94164.00;;;;10439732;28;45049;-79
2022/02/11 03:53:01;;;;;;;1.15;0.73;;;23.30;27.50;23.70;94203.00;;;;10437940;28;45122;-79
2022/02/11 04:20:22;;;;;;;0.85;0.40;;;23.20;27.40;23.60;94243.00;;;;10436915;28;45199;-79
2022/02/11 04:25:45;;;;;;;0.70;0.43;;;23.20;27.40;23.60;94291.00;;;;10436168;28;45269;-79
2022/02/11 04:56:44;;;;;;;0.45;0.30;;;23.10;27.40;23.50;94332.00;;;;10434569;28;45353;-79
2022/02/11 05:01:45;;;;;;;0.50;0.35;;;23.10;27.50;23.50;94322.00;;;;10426906;28;48131;-79
2022/02/11 05:06:46;;;;;;;0.50;0.30;;;23.10;27.50;23.50;94347.00;;;;10442205;28;47443;-79
2022/02/11 05:11:46;;;;;;;1.13;0.45;;;23.10;27.50;23.50;94355.00;;;;10442654;28;45381;-79
2022/02/11 05:16:47;;;;;;;0.75;0.50;;;23.00;27.40;23.50;94361.00;;;;10425258;28;47166;-79
2022/02/11 05:21:48;;;;;;;0.35;0.30;;;23.00;27.40;23.50;94368.00;;;;10442124;28;45823;-80
2022/02/11 05:26:48;;;;;;;0.75;0.50;;;23.10;27.50;23.40;94362.00;;;;10424906;28;48389;-79
2022/02/11 05:31:50;;;;;;;0.93;0.40;;;23.00;27.50;23.40;94392.00;;;;10425052;28;47258;-79
2022/02/11 05:36:51;;;;;;;0.35;0.30;;;23.00;27.50;23.40;94395.00;;;;10424543;28;47017;-79
2022/02/11 05:41:51;;;;;;;1.08;0.40;;;23.00;27.50;23.40;94401.00;;;;10424527;28;48040;-79
2022/02/11 05:46:52;;;;;;;0.77;0.32;;;23.00;27.50;23.40;94426.00;;;;10425209;28;47367;-79
2022/02/11 05:51:53;;;;;;;0.55;0.30;;;23.00;27.50;23.40;94453.00;;;;10425380;28;46943;-80
2022/02/11 05:56:53;;;;;;;0.40;0.30;;;23.00;28.10;23.40;94459.00;;;;10424879;28;47998;-79
2022/02/11 06:01:54;;;;;;;0.20;0.20;;;23.00;27.50;23.40;94471.00;;;;10425794;28;47248;-79
2022/02/11 06:06:57;;;;;;;0.50;0.30;;;23.00;27.50;23.40;94490.00;;;;10442702;28;46424;-80
2022/02/11 06:11:58;;;;;;;0.60;0.40;;;23.00;27.50;23.40;94487.00;;;;10426283;28;47885;-80
2022/02/11 06:16:59;;;;;;;0.47;0.40;;;23.00;27.50;23.40;94504.00;;;;10425268;28;46533;-80
2022/02/11 06:21:59;;;;;;;0.65;0.40;;;23.00;27.50;23.40;94507.00;;;;10442292;28;48643;-80
2022/02/11 06:27:00;;;;;;;0.30;0.25;;;23.00;27.50;23.40;94522.00;;;;10423042;28;47208;-80
2022/02/11 06:32:01;;;;;;;1.85;0.20;;;23.00;27.50;23.50;94564.00;;;;10421475;28;46900;-80
2022/02/11 06:37:01;;;;;;;1.10;0.30;;;23.00;27.80;23.40;94573.00;;;;10413446;28;47194;-80
2022/02/11 06:42:03;;;;;;;1.17;0.30;;;23.00;28.00;23.50;94597.00;;;;10400714;28;46844;-80
2022/02/11 06:47:04;;;;;;;1.73;0.30;;;23.00;28.30;23.50;94625.00;;;;10405839;28;47021;-80
2022/02/11 06:52:05;;;;;;;0.20;0.20;;;23.00;28.60;23.50;94642.00;;;;10403731;28;48280;-80
2022/02/11 06:57:06;;;;;;;1.05;0.40;;;23.10;28.90;23.50;94653.00;;;;10401426;28;48257;-80
2022/02/11 07:02:19;;;;;;;0.38;0.20;;;23.10;29.00;23.50;94698.00;;;;10401649;28;45356;-79
2022/02/11 07:07:20;;;;;;;0.95;0.30;;;23.00;28.70;23.50;94692.00;;;;10397324;28;47927;-79
2022/02/11 07:12:21;;;;;;;0.30;0.30;;;23.10;28.90;23.50;94712.00;;;;10397370;28;47240;-80
2022/02/11 07:17:21;;;;;;;0.17;0.10;;;23.00;28.80;23.50;94721.00;;;;10397063;28;47020;-80
2022/02/11 07:22:22;;;;;;;0.38;0.22;;;23.00;29.00;23.50;94749.00;;;;10396621;28;47587;-80
2022/02/11 07:27:23;;;;;;;1.02;0.35;;;23.10;29.10;23.50;94766.00;;;;10396726;28;46678;-79
2022/02/11 07:32:27;;;;;;;3.15;0.22;;;23.00;29.10;23.30;94772.00;;;;10396860;28;47472;-79
2022/02/11 07:37:31;;;;;;;0.60;0.20;;;23.00;28.40;23.30;94776.00;;;;10400974;28;48053;-79
2022/02/11 07:42:37;;;;;;;0.73;0.20;;;22.90;28.30;23.30;94795.00;;;;10400549;28;46888;-79
2022/02/11 07:47:46;;;;;;;0.30;0.30;;;22.80;28.00;23.30;94803.00;;;;10423448;28;46031;-79
2022/02/11 07:52:54;;;;;;;1.17;0.30;;;22.90;27.80;23.20;94811.00;;;;10421280;28;48148;-78
2022/02/11 07:57:55;;;;;;;1.15;0.30;;;22.80;27.70;23.20;94829.00;;;;10437012;28;46190;-78
2022/02/11 08:02:55;;;;;;;3.30;0.40;;;22.80;27.50;23.30;94835.00;;;;10421184;28;47201;-80
2022/02/11 08:07:56;;;;;;;0.68;0.30;;;22.80;27.20;23.40;94845.00;;;;10420662;28;47096;-80
2022/02/11 08:12:57;;;;;;;1.25;0.50;;;22.90;27.20;20.40;94850.00;;;;10411422;28;47056;-81
2022/02/11 08:17:58;;;;;;;1.58;0.40;;;21.90;21.40;21.40;94864.00;;;;10396464;28;47956;-80
2022/02/11 08:22:58;;;;;;;1.15;0.43;;;21.40;24.30;22.50;94862.00;;;;10421229;28;48187;-80
2022/02/11 08:28:02;;;;;;;1.50;0.30;;;22.00;25.60;22.90;94886.00;;;;10418490;28;47189;-80
2022/02/11 08:33:03;;;;;;;0.73;0.30;;;22.30;24.90;23.00;94895.00;;;;10420100;28;47154;-80
2022/02/11 08:38:03;;;;;;;0.35;0.25;;;22.50;24.70;23.20;94908.00;;;;10424690;28;47298;-80
2022/02/11 08:43:04;;;;;;;0.52;0.30;;;22.70;24.90;23.40;94904.00;;;;10425657;28;47405;-80
2022/02/11 08:48:05;;;;;;;0.93;0.22;;;22.80;24.90;23.50;94921.00;;;;10442008;28;45679;-80
2022/02/11 08:53:07;;;;;;;1.20;0.25;;;23.00;25.00;23.70;94931.00;;;;10440726;28;46979;-80
2022/02/11 08:58:07;;;;;;;1.40;0.20;;;23.20;25.00;23.90;94919.00;;;;10422409;22;47027;-80
2022/02/11 09:03:08;;;;;;;1.20;0.30;;;23.30;25.00;24.00;94939.00;;;;10403841;28;45289;-79
2022/02/11 09:08:09;;;;;;;1.00;0.30;;;23.50;25.00;24.20;94954.00;;;;10403977;28;45229;-79
2022/02/11 09:13:10;;;;;;;0.50;0.30;;;23.60;25.10;24.30;94960.00;;;;10386263;28;47125;-80
2022/02/11 09:18:12;;;;;;;0.65;0.30;;;23.80;25.30;24.30;94967.00;;;;10384680;28;47168;-80
2022/02/11 09:23:12;;;;;;;0.43;0.20;;;23.80;25.30;24.50;94975.00;;;;10400401;28;45238;-80
2022/02/11 09:28:13;;;;;;;1.27;0.40;;;23.90;26.00;24.60;94966.00;;;;10382414;28;47147;-81
2022/02/11 09:33:16;;;;;;;0.38;0.10;;;24.00;25.60;24.70;94971.00;;;;10362957;28;48184;-80
2022/02/11 09:38:22;;;;;;;0.90;0.30;;;24.10;25.60;24.80;94983.00;;;;10362207;28;47173;-81
2022/02/11 09:43:25;;;;;;;0.88;0.30;;;24.20;25.60;24.80;94983.00;;;;10361270;28;47178;-81
2022/02/11 09:48:26;;;;;;;0.52;0.30;;;24.40;25.70;24.90;94992.00;;;;10345200;28;48538;-80
2022/02/11 09:53:29;;;;;;;1.63;0.50;;;24.40;25.70;21.70;95013.00;;;;10361562;28;46877;-82
2022/02/11 09:58:30;;;;;;;1.10;0.50;;;23.20;18.60;20.40;95018.00;;;;10361340;28;47177;-81
2022/02/11 10:03:31;;;;;;;1.75;0.30;;;21.90;19.30;20.70;95000.00;;;;10390383;28;47417;-80
2022/02/11 10:08:35;;;;;;;0.93;0.40;;;21.40;20.10;20.90;95019.00;;;;10382406;28;48026;-80
2022/02/11 10:13:40;;;;;;;3.03;0.50;;;21.20;21.60;22.50;95027.00;;;;10380472;28;45529;-79
2022/02/11 10:18:48;;;;;;;1.15;0.30;;;21.90;23.40;22.90;95004.00;;;;10380658;28;45442;-85
2022/02/11 10:23:51;;;;;;;2.20;0.40;;;22.40;23.40;23.00;95009.00;;;;10407392;28;47157;-79
2022/02/11 10:28:55;;;;;;;1.40;0.20;;;22.60;23.60;23.10;95034.00;;;;10419248;28;47240;-78
2022/02/11 10:34:03;;;;;;;5.30;0.50;;;22.70;23.60;23.20;95040.00;;;;10397131;28;47092;-79
2022/02/11 10:39:05;;;;;;;3.65;0.50;;;22.80;24.10;23.20;95041.00;;;;10397416;28;47776;-79
2022/02/11 10:44:13;;;;;;;0.98;0.25;;;22.80;24.00;23.60;95046.00;;;;10396487;28;47326;-79
2022/02/11 10:49:16;;;;;;;2.10;0.30;;;23.00;24.20;23.50;95031.00;;;;10371890;28;46982;-80
2022/02/11 10:54:35;;;;;;;4.07;0.30;;;23.10;23.90;23.60;95037.00;;;;10356898;28;46192;-79
2022/02/11 10:59:38;;;;;;;1.35;0.30;;;23.20;24.10;23.60;95035.00;;;;10336815;28;46953;-78
2022/02/11 11:04:40;;;;;;;2.42;0.73;;;23.20;24.00;23.50;95041.00;;;;10354593;28;47168;-79
2022/02/11 11:09:45;;;;;;;11.15;4.60;;;23.20;24.50;23.90;95028.00;;;;10372420;28;46939;-79
2022/02/11 11:14:50;;;;;;;27.70;9.10;;;23.40;25.10;24.10;95043.00;;;;10375329;28;47342;-79
2022/02/11 11:19:55;;;;;;;26.10;9.50;;;23.50;26.40;24.10;95049.00;;;;10388858;28;47457;-79
2022/02/11 11:25:03;;;;;;;24.27;7.28;;;23.70;26.10;24.20;95030.00;;;;10366872;28;47358;-80
2022/02/11 11:30:23;;;;;;;16.73;5.18;;;23.70;26.80;24.20;95015.00;;;;10374560;28;47585;-79
2022/02/11 11:35:25;;;;;;;14.32;4.60;;;23.80;26.00;24.30;95018.00;;;;10383340;28;47200;-79
2022/02/11 11:40:26;;;;;;;14.98;4.93;;;23.80;27.90;24.40;95014.00;;;;10360096;28;47131;-79
2022/02/11 11:45:28;;;;;;;19.50;5.65;;;23.90;27.00;24.40;95006.00;;;;10386904;28;45228;-78
2022/02/11 11:50:31;;;;;;;14.13;4.97;;;23.90;27.30;24.50;95013.00;;;;10376995;28;45401;-78
2022/02/11 11:55:38;;;;;;;12.32;3.97;;;24.00;30.00;24.70;95021.00;;;;10376394;28;48096;-79
2022/02/11 12:00:41;;;;;;;11.77;4.40;;;24.10;30.20;24.90;95019.00;;;;10363751;28;47015;-79
2022/02/11 12:05:53;;;;;;;11.48;3.95;;;24.20;30.70;25.00;95010.00;;;;10365130;28;47203;-79
2022/02/11 12:10:57;;;;;;;10.55;3.60;;;24.30;30.60;25.10;95021.00;;;;10347367;28;47514;-79
2022/02/11 12:15:58;;;;;;;12.75;3.83;;;24.40;30.30;25.10;95014.00;;;;10346503;28;47193;-79
2022/02/11 12:20:59;;;;;;;8.60;3.30;;;24.50;30.50;25.10;95006.00;;;;10347669;28;46889;-79
2022/02/11 12:31:24;;;;;;;9.60;3.25;;;24.50;30.00;25.10;95029.00;;;;10364529;28;45921;-78
2022/02/11 12:36:25;;;;;;;11.48;3.28;;;24.60;30.00;25.20;95011.00;;;;10362190;28;46540;-79
2022/02/11 12:41:46;;;;;;;10.75;3.15;;;24.70;30.30;25.20;95010.00;;;;10362929;28;45613;-79
2022/02/11 12:46:47;;;;;;;12.27;3.30;;;24.70;30.20;25.30;95004.00;;;;10362028;28;45192;-79
2022/02/11 12:51:53;;;;;;;7.80;2.45;;;24.70;29.80;25.30;95006.00;;;;10346490;28;47135;-78
2022/02/11 12:57:04;;;;;;;;;;;24.80;30.00;25.30;95014.00;;;;10371097;28;46964;-79
2022/02/11 13:02:04;;;;;;;3.15;0.70;;;24.80;30.00;22.10;95008.00;;;;10380888;28;47996;-77
2022/02/11 13:07:05;;;;;;;4.38;0.73;;;23.40;20.30;23.80;95009.00;;;;10358569;28;48427;-77
2022/02/11 13:12:07;;;;;;;8.20;0.98;;;23.60;24.10;24.10;95011.00;;;;10363567;28;47084;-78
2022/02/11 13:17:10;;;;;;;3.67;0.63;;;23.80;24.50;20.90;94999.00;;;;10381661;28;47472;-77
2022/02/11 13:22:11;;;;;;;2.92;0.60;;;22.80;18.60;18.90;94989.00;;;;10381599;28;45190;-77
2022/02/11 13:27:12;;;;;;;0.85;0.30;;;21.10;19.90;21.50;95003.00;;;;10380626;28;47889;-77
2022/02/11 13:32:13;;;;;;;1.08;0.35;;;21.30;23.40;22.50;95013.00;;;;10398493;28;45517;-77
2022/02/11 13:37:13;;;;;;;1.33;0.45;;;22.00;24.20;22.90;94999.00;;;;10362752;28;47315;-76
2022/02/11 13:42:14;;;;;;;2.30;0.50;;;22.40;24.00;23.00;94997.00;;;;10356440;28;45308;-76
2022/02/11 13:47:16;;;;;;;3.95;0.60;;;22.60;24.40;23.00;94995.00;;;;10356769;28;45465;-77
2022/02/11 13:57:37;;;;;;;2.90;0.47;;;22.70;24.40;22.70;95005.00;;;;10355327;28;45142;-77
2022/02/11 14:02:46;;;;;;;1.25;0.40;;;22.60;24.40;23.00;95009.00;;;;10339493;28;46943;-76
2022/02/11 14:07:52;;;;;;;1.95;0.50;;;22.70;24.80;23.10;95020.00;;;;10382770;28;45439;-76
2022/02/11 14:13:06;;;;;;;2.67;0.47;;;22.80;25.50;23.00;95014.00;;;;10362229;28;48360;-76
2022/02/11 14:18:08;;;;;;;3.05;0.50;;;22.80;25.10;22.90;95007.00;;;;10375450;28;48417;-77
2022/02/11 14:23:17;;;;;;;3.45;0.40;;;22.80;25.40;22.70;95010.00;;;;10372960;28;47287;-76
2022/02/11 14:28:18;;;;;;;3.30;0.50;;;22.70;23.60;22.50;95018.00;;;;10390415;28;47414;-77
2022/02/11 14:33:20;;;;;;;2.78;0.40;;;22.60;22.90;21.80;95018.00;;;;10394250;28;45569;-77
2022/02/11 14:38:21;;;;;;;0.80;0.38;;;22.30;21.40;21.60;95009.00;;;;10378749;28;47350;-77
2022/02/11 14:43:21;;;;;;;2.05;0.40;;;22.00;22.00;22.30;95017.00;;;;10348591;28;47028;-76
2022/02/11 14:48:22;;;;;;;1.02;0.30;;;22.10;23.70;22.40;95027.00;;;;10345564;28;47157;-76
2022/02/11 14:53:23;;;;;;;0.93;0.40;;;22.20;23.40;22.40;95009.00;;;;10358570;28;47268;-76
2022/02/11 14:58:24;;;;;;;0.85;0.32;;;22.30;23.50;22.50;94999.00;;;;10420192;22;45614;-73
2022/02/11 15:03:26;;;;;;;0.98;0.30;;;22.30;23.60;22.50;94998.00;;;;10440477;28;45300;-73
2022/02/11 15:08:27;;;;;;;1.35;0.30;;;22.30;24.00;22.50;95016.00;;;;10451486;28;45420;-73
2022/02/11 15:13:28;;;;;;;1.10;0.30;;;22.30;24.20;22.50;95012.00;;;;10412315;28;45280;-73
2022/02/11 15:18:28;;;;;;;1.55;0.45;;;22.30;24.20;22.50;95019.00;;;;10404653;28;46829;-73
2022/02/11 15:23:29;;;;;;;0.70;0.22;;;22.30;24.30;22.50;95026.00;;;;10406806;28;47194;-73
2022/02/11 15:28:35;;;;;;;1.45;0.40;;;22.30;24.40;22.50;95039.00;;;;10377514;28;47640;-74
2022/02/11 15:33:36;;;;;;;;;;;22.30;25.00;22.50;95051.00;;;;10394017;28;47038;-73
2022/02/11 15:38:37;;;;;;;1.65;0.28;;;22.30;24.40;22.50;95050.00;;;;10394338;28;46883;-73
2022/02/11 15:43:38;;;;;;;1.15;0.43;;;22.30;24.40;22.60;95054.00;;;;10377326;28;47164;-74
2022/02/11 15:48:39;;;;;;;2.08;0.45;;;22.30;25.10;22.60;95048.00;;;;10405389;28;48345;-73
2022/02/11 15:53:40;;;;;;;2.92;0.80;;;22.40;24.60;21.50;95060.00;;;;10403330;28;45474;-74
2022/02/11 15:58:42;;;;;;;1.90;0.50;;;22.00;21.20;21.30;95066.00;;;;10409658;28;46302;-73
2022/02/11 16:03:43;;;;;;;2.35;0.47;;;21.50;22.60;21.00;95078.00;;;;10431539;28;47240;-73
2022/02/11 16:08:43;;;;;;;1.33;0.50;;;21.30;22.70;21.60;95078.00;;;;10396992;28;47407;-73
2022/02/11 16:13:44;;;;;;;0.80;0.70;;;21.40;23.40;20.90;95083.00;;;;10394713;28;47027;-73
2022/02/11 16:18:45;;;;;;;1.08;0.40;;;21.20;22.50;21.80;95076.00;;;;10378019;28;47015;-73
2022/02/11 16:23:45;;;;;;;1.45;0.63;;;21.50;23.20;22.00;95085.00;;;;10361395;28;48396;-73
2022/02/11 16:28:46;;;;;;;0.68;0.50;;;21.70;23.20;22.10;95064.00;;;;10353061;28;45642;-73
2022/02/11 16:33:48;;;;;;;1.50;0.60;;;21.80;23.30;22.10;95087.00;;;;10351758;28;47246;-73
2022/02/11 16:38:50;;;;;;;3.28;0.80;;;21.80;23.50;21.80;95089.00;;;;10351913;28;47498;-73
2022/02/11 16:43:51;;;;;;;1.40;0.60;;;21.80;21.70;21.60;95090.00;;;;10348556;28;46968;-73
2022/02/11 16:48:52;;;;;;;2.97;0.45;;;21.60;23.40;22.00;95089.00;;;;10348800;28;46712;-74
2022/02/11 16:53:53;;;;;;;0.80;0.40;;;21.70;23.80;22.10;95094.00;;;;10353755;28;47049;-73
2022/02/11 16:58:54;;;;;;;2.00;0.63;;;21.80;23.90;22.20;95101.00;;;;10361115;28;45552;-72
2022/02/11 17:03:54;;;;;;;1.50;0.90;;;21.90;24.00;22.40;95092.00;;;;10372891;28;47389;-72
2022/02/11 17:08:57;;;;;;;1.30;0.65;;;22.10;24.40;22.40;95099.00;;;;10414891;28;45362;-72
2022/02/11 17:13:58;;;;;;;2.60;0.85;;;22.10;24.60;22.50;95107.00;;;;10417010;28;45108;-73
2022/02/11 17:18:58;;;;;;;1.33;0.40;;;22.20;24.80;22.40;95101.00;;;;10395658;28;45598;-72
2022/02/11 17:23:59;;;;;;;0.90;0.50;;;22.30;24.90;22.50;95122.00;;;;10408615;28;46299;-73
2022/02/11 17:29:00;;;;;;;1.48;0.50;;;22.30;25.10;22.60;95105.00;;;;10384799;28;47047;-73
2022/02/11 17:34:01;;;;;;;2.40;0.90;;;22.30;24.90;22.70;95127.00;;;;10399575;28;45469;-73
2022/02/11 17:39:05;;;;;;;3.63;1.40;;;22.40;25.10;22.80;95136.00;;;;10382725;28;47709;-73
2022/02/11 17:44:06;;;;;;;4.85;1.30;;;22.50;25.20;22.80;95144.00;;;;10382092;28;47455;-73
2022/02/11 17:49:07;;;;;;;2.42;1.00;;;22.60;25.10;22.90;95146.00;;;;10398813;28;46554;-73
2022/02/11 17:54:14;;;;;;;4.15;1.20;;;22.70;25.20;22.90;95158.00;;;;10399832;28;45532;-73
2022/02/11 17:59:15;;;;;;;2.72;1.10;;;22.70;25.00;22.80;95150.00;;;;10383185;28;48076;-74
2022/02/11 18:04:16;;;;;;;2.67;1.10;;;22.70;25.00;22.90;95175.00;;;;10398393;28;45260;-73
2022/02/11 18:09:17;;;;;;;3.38;1.10;;;22.70;25.10;22.90;95172.00;;;;10398174;28;46475;-74
2022/02/11 18:14:17;;;;;;;1.33;0.80;;;22.70;25.10;22.90;95172.00;;;;10380699;28;47933;-73
2022/02/11 18:19:18;;;;;;;2.70;1.00;;;22.70;25.10;23.00;95173.00;;;;10381323;28;46618;-73
2022/02/11 18:24:22;;;;;;;2.88;1.10;;;22.80;25.20;23.00;95174.00;;;;10402283;28;46292;-73
2022/02/11 18:29:28;;;;;;;2.83;0.80;;;22.80;25.10;23.40;95181.00;;;;10383882;28;45251;-73
2022/02/11 18:34:29;;;;;;;2.15;1.08;;;23.00;25.30;23.60;95179.00;;;;10402737;28;45455;-73
2022/02/11 18:39:29;;;;;;;2.13;1.00;;;23.20;24.80;23.70;95168.00;;;;10380325;28;47557;-73
2022/02/11 18:44:30;;;;;;;1.98;0.95;;;23.30;24.70;23.80;95178.00;;;;10395547;28;46412;-73
2022/02/11 18:49:31;;;;;;;1.90;0.80;;;23.50;24.70;23.80;95180.00;;;;10380017;28;48127;-73
2022/02/11 18:54:33;;;;;;;1.77;0.98;;;23.50;24.60;23.60;95184.00;;;;10396651;28;45376;-73
2022/02/11 19:04:54;;;;;;;3.20;0.90;;;23.50;24.30;23.70;95193.00;;;;10396706;28;45222;-73
2022/02/11 19:09:57;;;;;;;1.77;1.00;;;23.60;24.50;23.80;95201.00;;;;10380005;28;46941;-73
2022/02/11 19:14:58;;;;;;;2.05;0.98;;;23.60;24.30;23.80;95186.00;;;;10397227;28;45288;-73
2022/02/11 19:19:59;;;;;;;2.38;1.00;;;23.70;24.30;23.70;95180.00;;;;10395218;28;45341;-73
2022/02/11 19:25:01;;;;;;;2.78;1.00;;;23.70;23.10;23.70;95194.00;;;;10395200;28;45303;-76
2022/02/11 19:30:04;;;;;;;1.52;0.77;;;23.60;24.10;23.70;95195.00;;;;10395130;28;45302;-73
2022/02/11 19:35:09;;;;;;;1.60;0.85;;;23.70;24.20;23.80;95181.00;;;;10395336;28;45323;-73
2022/02/11 19:40:11;;;;;;;1.90;0.83;;;23.70;24.20;23.80;95185.00;;;;10394582;28;45474;-73
2022/02/11 19:45:13;;;;;;;2.83;0.85;;;23.70;24.20;23.80;95182.00;;;;10378434;28;46828;-73
2022/02/11 19:50:15;;;;;;;1.33;0.77;;;23.70;24.20;23.80;95190.00;;;;10380085;28;47463;-73
2022/02/11 19:55:17;;;;;;;1.25;0.70;;;23.70;24.30;23.70;95210.00;;;;10380859;28;48041;-76
2022/02/11 20:00:21;;;;;;;1.08;0.65;;;23.60;24.30;23.70;95196.00;;;;10396758;28;45434;-72
2022/02/11 20:05:21;;;;;;;1.60;0.68;;;23.60;24.20;23.80;95208.00;;;;10380124;28;48435;-73
2022/02/11 20:10:28;;;;;;;2.05;0.93;;;23.60;25.00;24.30;95216.00;;;;10380457;28;47060;-73
2022/02/11 20:15:28;;;;;;;;;;;23.80;25.10;24.50;95203.00;;;;10412840;28;47522;-73
2022/02/11 20:20:31;;;;;;;0.90;0.50;;;24.00;25.20;24.70;95197.00;;;;10424583;28;45213;-73
2022/02/11 20:25:32;;;;;;;1.08;0.40;;;24.20;25.20;24.90;95206.00;;;;10393924;28;45571;-73
2022/02/11 20:30:34;;;;;;;0.50;0.50;;;24.40;25.20;25.00;95203.00;;;;10399459;28;46396;-73
2022/02/11 20:35:39;;;;;;;1.25;0.50;;;24.50;25.30;25.10;95197.00;;;;10384650;28;47380;-73
2022/02/11 20:40:41;;;;;;;1.83;0.67;;;24.60;25.30;25.10;95192.00;;;;10385055;28;47157;-73
2022/02/11 20:45:42;;;;;;;1.85;0.63;;;24.70;25.60;25.20;95211.00;;;;10401136;28;45436;-73
2022/02/11 20:50:43;;;;;;;1.42;0.52;;;24.70;25.50;25.20;95205.00;;;;10383887;28;47264;-73
2022/02/11 20:55:47;;;;;;;0.98;0.43;;;24.70;25.50;25.20;95182.00;;;;10383893;28;47411;-74
2022/02/11 21:00:48;;;;;;;1.10;0.50;;;24.80;25.60;25.20;95205.00;;;;10450898;22;45225;-75
2022/02/11 21:05:53;;;;;;;2.83;0.80;;;24.80;25.60;25.20;95192.00;;;;10425374;28;46703;-74
2022/02/11 21:10:54;;;;;;;2.97;0.50;;;24.80;25.70;25.20;95196.00;;;;10425851;28;47652;-75
2022/02/11 21:15:55;;;;;;;0.77;0.50;;;24.80;25.80;25.20;95195.00;;;;10425182;28;47233;-75
2022/02/11 21:20:55;;;;;;;1.00;0.40;;;24.80;25.70;25.20;95181.00;;;;10441870;28;45365;-76
2022/02/11 21:25:56;;;;;;;3.42;0.47;;;24.70;25.80;25.10;95193.00;;;;10424670;28;47153;-76
2022/02/11 21:30:57;;;;;;;1.13;0.60;;;24.80;25.90;25.10;95171.00;;;;10441009;28;46646;-75
2022/02/11 21:35:57;;;;;;;1.27;0.60;;;24.80;26.00;25.10;95191.00;;;;10424219;28;47270;-75
2022/02/11 21:41:01;;;;;;;1.13;0.50;;;24.80;25.90;25.10;95191.00;;;;10419968;28;47555;-75
2022/02/11 21:46:02;;;;;;;0.60;0.40;;;24.80;26.10;25.00;95184.00;;;;10424076;28;47217;-77
2022/02/11 21:51:03;;;;;;;1.27;0.63;;;24.70;25.90;24.70;95184.00;;;;10421411;28;46972;-76
2022/02/11 21:56:04;;;;;;;2.38;0.65;;;24.50;25.60;24.60;95203.00;;;;10398954;28;47565;-75
2022/02/11 22:01:05;;;;;;;1.23;0.60;;;24.40;25.30;24.70;95178.00;;;;10399816;28;46849;-75
2022/02/11 22:06:09;;;;;;;0.80;0.57;;;24.40;25.20;24.70;95192.00;;;;10398570;28;46924;-75
2022/02/11 22:11:11;;;;;;;0.77;0.40;;;24.40;25.20;24.70;95181.00;;;;10398637;28;46920;-75
2022/02/11 22:16:13;;;;;;;1.58;0.63;;;24.40;25.80;24.60;95176.00;;;;10398407;28;48223;-75
2022/02/11 22:21:14;;;;;;;0.75;0.45;;;24.40;25.20;24.60;95167.00;;;;10408909;28;46988;-75
2022/02/11 22:26:15;;;;;;;1.05;0.68;;;24.30;25.30;24.60;95192.00;;;;10422903;28;46955;-74
2022/02/11 22:31:16;;;;;;;1.30;0.63;;;24.20;25.20;24.50;95174.00;;;;10422741;28;47186;-75
2022/02/11 22:36:17;;;;;;;1.08;0.60;;;24.20;25.30;24.50;95182.00;;;;10441262;28;45142;-76
2022/02/11 22:41:18;;;;;;;0.95;0.60;;;24.20;25.30;24.50;95178.00;;;;10439988;28;47010;-75
2022/02/11 22:46:18;;;;;;;0.50;0.40;;;24.10;25.20;24.40;95190.00;;;;10438851;28;48216;-75
2022/02/11 22:56:52;;;;;;;1.23;0.60;;;24.10;25.30;24.30;95185.00;;;;10405901;28;45909;-76
2022/02/11 23:01:53;;;;;;;1.40;0.70;;;24.00;25.20;24.30;95182.00;;;;10421951;28;48057;-75
2022/02/11 23:06:53;;;;;;;0.82;0.50;;;24.00;25.30;24.30;95191.00;;;;10421855;28;46652;-75
2022/02/11 23:11:56;;;;;;;1.10;0.60;;;23.90;25.30;24.30;95168.00;;;;10421480;28;45536;-76
2022/02/11 23:16:56;;;;;;;1.73;0.70;;;23.90;25.40;24.20;95179.00;;;;10438333;28;45276;-76
2022/02/11 23:21:57;;;;;;;1.65;0.70;;;23.90;25.30;24.20;95174.00;;;;10437587;28;45367;-75
2022/02/11 23:27:04;;;;;;;1.33;0.70;;;23.90;25.40;24.20;95167.00;;;;10436683;28;45298;-75
2022/02/11 23:32:05;;;;;;;0.98;0.60;;;23.80;25.40;24.10;95173.00;;;;10421929;28;47177;-75
2022/02/11 23:37:06;;;;;;;1.08;0.70;;;23.80;25.40;24.10;95162.00;;;;10437918;28;45324;-75
2022/02/11 23:42:07;;;;;;;1.58;0.70;;;23.70;25.30;24.10;95169.00;;;;10420837;28;47245;-75
2022/02/11 23:47:12;;;;;;;1.20;0.70;;;23.70;25.30;24.00;95160.00;;;;10420734;28;46772;-75
2022/02/11 23:52:12;;;;;;;1.03;0.70;;;23.70;25.40;24.00;95150.00;;;;10421213;28;46613;-75
2022/02/11 23:57:13;;;;;;;0.93;0.60;;;23.60;25.40;24.00;95130.00;;;;10437056;28;47040;-75
